Time;durP1;ratioP1;P1;durP2;ratioP2;P2;SDS_P1;SDS_P2;PMS_P1;PMS_P2;Temp;Humidity;BMP_temperature;BMP_pressure;BME280_temperature;BME280_humidity;BME280_pressure;Samples;Min_cycle;Max_cycle;Signal;HPM_P1;HPM_P2
2022/04/16 00:00:55;;;;;;;1.33;0.47;;;10.20;99.90;;;;;;4901897;29;20024;-91
2022/04/16 00:03:33;;;;;;;;;;;;;;;;;;;;;
2022/04/16 00:06:43;;;;;;;;;;;;;;;;;;;;;
2022/04/16 00:09:12;;;;;;;1.48;0.55;;;10.10;99.90;;;;;;4902352;29;20052;-89
2022/04/16 00:12:10;;;;;;;1.10;0.40;;;10.10;99.90;;;;;;4915093;29;20037;-89
2022/04/16 00:14:41;;;;;;;1.30;0.35;;;10.10;99.90;;;;;;4899242;29;20037;-90
2022/04/16 00:17:48;;;;;;;1.00;0.40;;;10.10;99.90;;;;;;4902018;29;20045;-91
2022/04/16 00:20:54;;;;;;;1.02;0.35;;;10.00;99.90;;;;;;4902969;29;20036;-90
2022/04/16 00:23:25;;;;;;;1.33;0.32;;;10.00;99.90;;;;;;4894061;29;20043;-91
2022/04/16 00:26:30;;;;;;;1.33;0.50;;;9.90;99.90;;;;;;4900554;29;20033;-91
2022/04/16 00:29:31;;;;;;;1.30;0.50;;;9.80;99.90;;;;;;4899601;29;20123;-91
2022/04/16 00:32:14;;;;;;;0.90;0.30;;;9.90;99.90;;;;;;4893365;29;20032;-90
2022/04/16 00:34:52;;;;;;;1.27;0.55;;;9.80;99.90;;;;;;4897424;29;20057;-90
2022/04/16 00:37:43;;;;;;;1.30;0.30;;;9.70;99.90;;;;;;4900025;29;20072;-89
2022/04/16 00:40:22;;;;;;;1.13;0.35;;;9.70;99.90;;;;;;4903152;29;20025;-89
2022/04/16 00:46:05;;;;;;;1.10;0.65;;;9.60;99.90;;;;;;4885643;29;20025;-90
2022/04/16 00:48:49;;;;;;;1.70;0.50;;;9.50;99.90;;;;;;4893897;29;20033;-91
2022/04/16 00:51:31;;;;;;;1.05;0.43;;;9.40;99.90;;;;;;4903373;29;20435;-91
2022/04/16 00:54:37;;;;;;;0.47;0.30;;;9.60;99.90;;;;;;4902406;29;20200;-91
2022/04/16 00:57:24;;;;;;;1.02;0.40;;;9.50;99.90;;;;;;4915317;29;20033;-90
2022/04/16 01:00:12;;;;;;;1.15;0.50;;;9.50;99.90;;;;;;4903670;29;20092;-90
2022/04/16 01:03:04;;;;;;;0.70;0.40;;;9.40;99.90;;;;;;4895378;29;20045;-91
2022/04/16 01:06:21;;;;;;;0.70;0.30;;;9.40;99.90;;;;;;4900530;29;20123;-90
2022/04/16 01:09:27;;;;;;;0.75;0.20;;;9.50;99.90;;;;;;4900275;29;20285;-90
2022/04/16 01:19:22;;;;;;;1.52;0.47;;;9.40;99.90;;;;;;4870061;29;20063;-90
2022/04/16 01:22:39;;;;;;;;;;;;;;;;;;;;;
2022/04/16 01:25:42;;;;;;;;;;;;;;;;;;;;;
2022/04/16 01:28:50;;;;;;;2.22;0.40;;;9.40;99.90;;;;;;4898640;29;20079;-90
2022/04/16 01:32:14;;;;;;;;;;;;;;;;;;;;;
2022/04/16 01:35:08;;;;;;;1.70;0.60;;;9.40;99.90;;;;;;4908158;29;20067;-89
2022/04/16 01:41:43;;;;;;;1.80;0.63;;;9.30;99.90;;;;;;4868639;29;20049;-92
2022/04/16 01:48:19;;;;;;;1.10;0.45;;;9.30;99.90;;;;;;4883539;29;20033;-92
2022/04/16 01:51:57;;;;;;;;;;;;;;;;;;;;;
2022/04/16 01:54:18;;;;;;;1.00;0.50;;;9.30;99.90;;;;;;4876415;29;20132;-90
2022/04/16 01:56:59;;;;;;;;;;;;;;;;;;;;;
2022/04/16 02:00:07;;;;;;;1.05;0.57;;;9.20;99.90;;;;;;4906022;29;20162;-90
2022/04/16 02:03:12;;;;;;;0.85;0.40;;;9.40;99.90;;;;;;4904727;29;20037;-92
2022/04/16 02:06:02;;;;;;;2.08;0.60;;;9.10;99.90;;;;;;4893681;29;20052;-90
2022/04/16 02:08:54;;;;;;;;;;;;;;;;;;;;;
2022/04/16 02:11:59;;;;;;;1.73;0.68;;;9.10;99.90;;;;;;4907277;29;20230;-91
2022/04/16 02:14:48;;;;;;;0.80;0.38;;;9.20;99.90;;;;;;4904234;29;20746;-91
2022/04/16 02:18:08;;;;;;;1.08;0.50;;;9.20;99.90;;;;;;4905558;29;20036;-91
2022/04/16 02:21:20;;;;;;;;;;;;;;;;;;;;;
2022/04/16 02:24:04;;;;;;;;;;;;;;;;;;;;;
2022/04/16 02:27:06;;;;;;;1.13;0.47;;;9.10;99.90;;;;;;4905390;29;20060;-90
2022/04/16 02:30:00;;;;;;;1.05;0.50;;;9.10;99.90;;;;;;4917107;29;20116;-91
2022/04/16 02:40:30;;;;;;;1.63;0.52;;;9.10;99.90;;;;;;3022165;23;20056;-90
2022/04/16 02:50:09;;;;;;;2.58;0.85;;;9.00;99.90;;;;;;4925226;29;20095;-91
2022/04/16 02:53:15;;;;;;;2.17;0.70;;;8.90;99.90;;;;;;4906360;29;20020;-90
2022/04/16 02:56:01;;;;;;;1.92;0.68;;;8.90;99.90;;;;;;4902201;29;20087;-91
2022/04/16 03:02:05;;;;;;;1.58;0.63;;;8.70;99.90;;;;;;4957076;23;20510;-90
2022/04/16 03:04:32;;;;;;;1.90;0.55;;;8.70;99.90;;;;;;4920757;29;20052;-90
2022/04/16 03:07:22;;;;;;;6.20;0.60;;;8.60;99.90;;;;;;4905101;29;20021;-90
2022/04/16 03:10:02;;;;;;;1.23;0.40;;;8.60;99.90;;;;;;4906060;29;20196;-92
2022/04/16 03:19:05;;;;;;;1.13;0.47;;;8.40;99.90;;;;;;4906771;29;20087;-91
2022/04/16 03:21:48;;;;;;;1.60;0.50;;;8.50;99.90;;;;;;4893739;29;20029;-91
2022/04/16 03:24:30;;;;;;;2.55;0.75;;;8.40;99.90;;;;;;4892366;29;20403;-91
2022/04/16 03:30:05;;;;;;;1.42;0.60;;;8.40;99.90;;;;;;4902174;29;20041;-90
2022/04/16 03:33:08;;;;;;;1.90;0.73;;;8.50;99.90;;;;;;4913866;29;20100;-90
2022/04/16 03:36:05;;;;;;;0.98;0.50;;;8.40;99.90;;;;;;4905640;29;20052;-90
2022/04/16 03:38:44;;;;;;;;;;;;;;;;;;;;;
2022/04/16 03:41:44;;;;;;;1.60;0.55;;;8.40;99.90;;;;;;4902980;29;20104;-91
2022/04/16 03:44:30;;;;;;;5.32;0.60;;;8.40;99.90;;;;;;4887094;29;20038;-90
2022/04/16 03:47:13;;;;;;;1.60;0.50;;;8.40;99.90;;;;;;4896929;29;20017;-90
2022/04/16 03:49:44;;;;;;;2.05;0.60;;;8.40;99.90;;;;;;4905540;29;20052;-90
2022/04/16 03:52:51;;;;;;;1.25;0.32;;;8.50;99.90;;;;;;4887690;29;20029;-90
2022/04/16 04:01:56;;;;;;;1.67;0.60;;;8.50;99.90;;;;;;4891196;29;20052;-90
2022/04/16 04:04:35;;;;;;;1.38;0.60;;;8.50;99.90;;;;;;4915555;29;20047;-91
2022/04/16 04:07:19;;;;;;;1.92;0.77;;;8.40;99.90;;;;;;4904622;29;20045;-90
2022/04/16 04:10:17;;;;;;;2.38;0.88;;;8.50;99.90;;;;;;4909467;29;20077;-89
2022/04/16 04:13:16;;;;;;;1.83;0.57;;;8.50;99.90;;;;;;4919251;29;20036;-90
2022/04/16 04:16:22;;;;;;;2.25;0.65;;;8.70;99.90;;;;;;4916264;29;20041;-90
2022/04/16 04:19:31;;;;;;;1.83;0.60;;;8.60;99.90;;;;;;4909720;29;20024;-90
2022/04/16 04:25:02;;;;;;;1.50;0.60;;;8.70;99.90;;;;;;4916578;29;20039;-90
2022/04/16 04:27:40;;;;;;;1.42;0.60;;;8.60;99.90;;;;;;4918818;29;20028;-90
2022/04/16 04:30:40;;;;;;;1.90;0.63;;;8.60;99.90;;;;;;4903199;29;20514;-90
2022/04/16 04:33:20;;;;;;;1.92;0.85;;;8.60;99.90;;;;;;4902650;29;20117;-91
2022/04/16 04:35:55;;;;;;;1.42;0.60;;;8.60;99.90;;;;;;4901072;29;20086;-91
2022/04/16 04:38:28;;;;;;;1.42;0.70;;;8.60;99.90;;;;;;4888392;29;20047;-89
2022/04/16 04:41:04;;;;;;;1.75;0.70;;;8.60;99.90;;;;;;4886721;29;20033;-92
2022/04/16 04:43:36;;;;;;;2.00;0.80;;;8.50;99.90;;;;;;4889279;29;20056;-91
2022/04/16 04:46:37;;;;;;;2.28;0.63;;;8.60;99.90;;;;;;4888127;29;20040;-91
2022/04/16 04:49:16;;;;;;;1.98;0.80;;;8.50;99.90;;;;;;4902588;29;20076;-91
2022/04/16 04:52:21;;;;;;;1.73;0.60;;;8.50;99.90;;;;;;4901577;29;20120;-91
2022/04/16 04:54:52;;;;;;;1.70;0.65;;;8.40;99.90;;;;;;4890422;29;20032;-90
2022/04/16 04:57:54;;;;;;;2.30;0.98;;;8.50;99.90;;;;;;4885384;29;20025;-91
2022/04/16 05:00:34;;;;;;;3.13;0.83;;;8.50;99.90;;;;;;4903152;29;20470;-91
2022/04/16 05:06:02;;;;;;;1.98;0.70;;;8.60;99.90;;;;;;4904442;29;20088;-90
2022/04/16 05:11:52;;;;;;;3.00;0.93;;;8.50;99.90;;;;;;4891788;29;20033;-91
2022/04/16 05:14:33;;;;;;;3.03;0.82;;;8.70;99.90;;;;;;4887673;29;20029;-92
2022/04/16 05:17:10;;;;;;;2.13;0.80;;;8.70;99.90;;;;;;4886526;29;20111;-91
2022/04/16 05:20:04;;;;;;;3.00;0.98;;;8.70;99.90;;;;;;4901735;29;20479;-92
2022/04/16 05:25:51;;;;;;;2.78;1.00;;;8.70;99.90;;;;;;4901767;29;20076;-91
2022/04/16 05:28:24;;;;;;;2.45;0.80;;;8.70;99.90;;;;;;4886219;29;20036;-92
2022/04/16 05:31:01;;;;;;;3.03;1.27;;;8.80;99.90;;;;;;4882254;29;20029;-91
2022/04/16 05:36:18;;;;;;;2.20;1.02;;;8.90;99.90;;;;;;4907803;29;20108;-91
2022/04/16 05:38:47;;;;;;;2.47;0.80;;;8.90;99.90;;;;;;4909601;29;20028;-92
2022/04/16 05:41:24;;;;;;;2.97;0.90;;;9.00;99.90;;;;;;4890128;29;20073;-91
2022/04/16 05:44:00;;;;;;;2.75;0.98;;;8.90;99.90;;;;;;4890900;29;20256;-92
2022/04/16 05:46:37;;;;;;;2.10;0.90;;;8.90;99.90;;;;;;4897549;29;20052;-91
2022/04/16 05:49:11;;;;;;;3.88;0.82;;;8.80;99.90;;;;;;4922581;29;20035;-91
2022/04/16 05:51:52;;;;;;;2.05;1.00;;;8.90;99.90;;;;;;4906007;29;20123;-91
2022/04/16 05:54:18;;;;;;;2.58;0.88;;;9.00;99.90;;;;;;4922501;23;20048;-86
2022/04/16 05:56:43;;;;;;;1.63;0.60;;;9.00;99.90;;;;;;4894463;29;20051;-86
2022/04/16 05:59:09;;;;;;;2.90;0.70;;;9.00;99.90;;;;;;4898833;29;20092;-86
2022/04/16 06:01:35;;;;;;;2.83;0.75;;;8.90;99.90;;;;;;4897858;29;20036;-86
2022/04/16 06:04:00;;;;;;;2.78;1.05;;;9.30;99.90;;;;;;4896957;29;20052;-86
2022/04/16 06:06:26;;;;;;;3.85;1.08;;;9.10;99.90;;;;;;4896955;29;20068;-86
2022/04/16 06:08:52;;;;;;;3.05;0.82;;;9.10;99.90;;;;;;4898929;29;20092;-86
2022/04/16 06:11:18;;;;;;;1.63;0.68;;;9.20;99.90;;;;;;4897817;29;20027;-86
2022/04/16 06:13:44;;;;;;;3.67;1.10;;;9.30;99.90;;;;;;4898145;29;20024;-86
2022/04/16 06:16:10;;;;;;;1.98;0.75;;;9.30;99.90;;;;;;4898493;29;20032;-86
2022/04/16 06:18:36;;;;;;;5.05;0.90;;;9.30;99.90;;;;;;4897104;29;20052;-86
2022/04/16 06:21:03;;;;;;;2.53;0.75;;;9.40;99.90;;;;;;4896877;29;20460;-87
2022/04/16 06:23:31;;;;;;;2.92;1.02;;;9.40;99.90;;;;;;4895132;29;20063;-87
2022/04/16 06:25:57;;;;;;;2.53;0.98;;;9.40;99.90;;;;;;4895177;29;20028;-85
2022/04/16 06:28:23;;;;;;;2.83;0.88;;;9.30;99.90;;;;;;4898083;29;20024;-86
2022/04/16 06:30:48;;;;;;;2.13;0.65;;;9.30;99.90;;;;;;4897474;29;20092;-87
2022/04/16 06:33:14;;;;;;;3.22;1.20;;;9.30;99.90;;;;;;4899135;29;20083;-86
2022/04/16 06:35:40;;;;;;;1.95;0.73;;;9.30;99.90;;;;;;4902678;29;20032;-86
2022/04/16 06:38:09;;;;;;;1.88;0.80;;;9.30;99.90;;;;;;4899098;29;20027;-86
2022/04/16 06:40:34;;;;;;;2.40;1.10;;;9.10;99.90;;;;;;4892840;29;20040;-86
2022/04/16 06:43:00;;;;;;;1.75;0.75;;;9.30;99.90;;;;;;4878986;29;20044;-87
2022/04/16 06:45:26;;;;;;;3.63;0.93;;;9.30;99.90;;;;;;4878867;29;20123;-86
2022/04/16 06:47:52;;;;;;;2.65;1.10;;;9.20;99.90;;;;;;4879431;29;20029;-86
2022/04/16 06:50:17;;;;;;;2.45;1.00;;;9.30;99.90;;;;;;4894106;29;20498;-86
2022/04/16 06:52:43;;;;;;;3.17;1.00;;;9.30;99.90;;;;;;4904004;29;20028;-86
2022/04/16 06:55:09;;;;;;;2.45;0.75;;;9.40;99.90;;;;;;4902132;29;20037;-86
2022/04/16 06:57:34;;;;;;;3.05;1.20;;;9.50;99.90;;;;;;4912956;29;20043;-86
2022/04/16 07:00:00;;;;;;;4.07;1.20;;;9.50;99.90;;;;;;4896381;29;20062;-86
2022/04/16 07:02:25;;;;;;;1.95;0.68;;;9.50;99.90;;;;;;4899242;29;20037;-86
2022/04/16 07:04:51;;;;;;;2.72;1.00;;;9.60;99.90;;;;;;4899433;29;20040;-85
2022/04/16 07:07:17;;;;;;;2.95;1.00;;;9.50;99.90;;;;;;4903332;29;20085;-87
2022/04/16 07:09:42;;;;;;;2.95;0.90;;;9.70;99.90;;;;;;4908165;29;20032;-87
2022/04/16 07:12:12;;;;;;;2.35;0.85;;;9.50;99.90;;;;;;4903066;29;20025;-86
2022/04/16 07:14:38;;;;;;;2.58;0.80;;;9.50;99.90;;;;;;4902412;29;20025;-86
2022/04/16 07:17:05;;;;;;;3.40;1.30;;;9.50;99.90;;;;;;4904729;29;20025;-87
2022/04/16 07:19:31;;;;;;;2.60;1.10;;;9.60;99.90;;;;;;4903095;29;20035;-86
2022/04/16 07:21:57;;;;;;;3.13;0.93;;;9.50;99.90;;;;;;4895281;29;20079;-86
2022/04/16 07:24:25;;;;;;;2.38;0.70;;;9.50;99.90;;;;;;4909833;29;20555;-86
2022/04/16 07:26:53;;;;;;;2.97;1.30;;;9.60;99.90;;;;;;4891726;29;20072;-86
2022/04/16 07:29:19;;;;;;;3.67;1.30;;;9.60;99.90;;;;;;4897708;29;20033;-86
2022/04/16 07:31:47;;;;;;;2.53;0.95;;;9.60;99.90;;;;;;4887382;29;20036;-85
2022/04/16 07:34:14;;;;;;;2.67;1.00;;;9.60;99.90;;;;;;4895170;29;20355;-87
2022/04/16 07:36:41;;;;;;;4.47;1.30;;;9.70;99.90;;;;;;4896114;29;20090;-86
2022/04/16 07:39:07;;;;;;;3.08;1.30;;;9.70;99.90;;;;;;4896151;29;20033;-86
2022/04/16 07:41:33;;;;;;;3.78;1.30;;;10.20;99.90;;;;;;4896294;29;20063;-87
2022/04/16 07:44:03;;;;;;;4.25;1.10;;;9.80;99.90;;;;;;4896383;29;20031;-87
2022/04/16 07:46:33;;;;;;;3.92;1.08;;;9.90;99.90;;;;;;4895669;29;20025;-87
2022/04/16 07:48:59;;;;;;;4.53;1.48;;;9.80;99.90;;;;;;4895385;29;20045;-86
2022/04/16 07:51:25;;;;;;;4.25;1.40;;;9.90;99.90;;;;;;4896882;29;20111;-87
2022/04/16 07:53:52;;;;;;;2.92;1.00;;;9.90;99.90;;;;;;4895241;29;20495;-87
2022/04/16 07:56:18;;;;;;;3.83;1.40;;;10.00;99.90;;;;;;4892829;29;20479;-87
2022/04/16 07:58:49;;;;;;;3.80;1.45;;;10.10;99.90;;;;;;4894576;29;20037;-86
2022/04/16 08:01:18;;;;;;;4.28;1.35;;;10.30;99.90;;;;;;4913120;29;20025;-86
2022/04/16 08:03:43;;;;;;;3.83;1.60;;;10.00;99.90;;;;;;4891369;29;20036;-86
2022/04/16 08:06:09;;;;;;;3.60;1.50;;;10.10;99.90;;;;;;4896064;29;20043;-86
2022/04/16 08:08:35;;;;;;;3.58;1.63;;;10.20;99.90;;;;;;4896649;29;20411;-87
2022/04/16 08:11:02;;;;;;;3.95;1.48;;;10.20;99.90;;;;;;4901440;29;20076;-88
2022/04/16 08:13:27;;;;;;;5.32;1.90;;;10.20;99.90;;;;;;4906444;29;20065;-87
2022/04/16 08:15:53;;;;;;;3.33;1.40;;;10.20;99.90;;;;;;4899487;29;20037;-88
2022/04/16 08:18:19;;;;;;;3.22;1.33;;;10.30;99.90;;;;;;4903875;29;20404;-87
2022/04/16 08:20:49;;;;;;;3.88;1.45;;;10.10;99.90;;;;;;4896397;29;20120;-88
2022/04/16 08:23:15;;;;;;;3.63;1.40;;;10.10;99.90;;;;;;4900710;29;20033;-87
2022/04/16 08:25:43;;;;;;;3.45;1.45;;;10.60;99.90;;;;;;4903680;29;20198;-88
2022/04/16 08:28:15;;;;;;;2.83;1.20;;;10.20;99.90;;;;;;4896924;29;20036;-87
2022/04/16 08:30:42;;;;;;;3.70;1.40;;;10.50;99.90;;;;;;4903783;29;20044;-87
2022/04/16 08:33:15;;;;;;;4.47;1.42;;;10.60;99.90;;;;;;4913052;29;20031;-87
2022/04/16 08:35:43;;;;;;;3.22;1.40;;;11.00;99.90;;;;;;4900976;29;20024;-87
2022/04/16 08:38:09;;;;;;;6.10;1.50;;;10.80;99.90;;;;;;4903053;29;20092;-88
2022/04/16 08:40:37;;;;;;;5.50;1.60;;;11.00;99.90;;;;;;4903555;29;20048;-87
2022/04/16 08:43:05;;;;;;;3.50;1.38;;;10.90;99.90;;;;;;4901314;29;20068;-87
2022/04/16 08:45:33;;;;;;;3.92;1.48;;;10.80;99.90;;;;;;4897141;29;20494;-88
2022/04/16 08:47:59;;;;;;;5.22;1.80;;;10.90;99.90;;;;;;4894000;29;20072;-88
2022/04/16 08:50:25;;;;;;;3.83;1.60;;;11.00;99.90;;;;;;4895532;29;20368;-88
2022/04/16 08:52:50;;;;;;;3.67;1.50;;;11.30;99.90;;;;;;4895977;29;20032;-88
2022/04/16 08:55:16;;;;;;;4.13;1.42;;;11.30;99.90;;;;;;4895373;29;20036;-88
2022/04/16 08:57:42;;;;;;;4.45;1.70;;;11.40;99.90;;;;;;4911094;29;20114;-87
2022/04/16 09:00:09;;;;;;;4.03;1.60;;;11.60;99.90;;;;;;4897435;29;20352;-87
2022/04/16 09:02:35;;;;;;;3.88;1.70;;;11.60;99.90;;;;;;4897194;29;20395;-87
2022/04/16 09:05:06;;;;;;;3.55;1.35;;;11.50;99.90;;;;;;4894097;29;20040;-87
2022/04/16 09:07:47;;;;;;;4.03;1.60;;;11.50;99.90;;;;;;4884222;29;20055;-88
2022/04/16 09:10:13;;;;;;;3.58;1.70;;;11.50;99.90;;;;;;4896852;29;20360;-87
2022/04/16 09:12:41;;;;;;;5.03;1.55;;;11.30;99.90;;;;;;4892699;29;20092;-88
2022/04/16 09:15:09;;;;;;;3.42;1.50;;;11.20;99.90;;;;;;4893382;29;20065;-87
2022/04/16 09:17:35;;;;;;;4.82;1.30;;;11.30;99.90;;;;;;4895157;29;20055;-88
2022/04/16 09:20:03;;;;;;;4.63;1.75;;;11.20;99.90;;;;;;4896345;29;20016;-88
2022/04/16 09:22:35;;;;;;;5.13;1.48;;;11.10;99.90;;;;;;4894226;29;20124;-90
2022/04/16 09:25:02;;;;;;;5.13;1.80;;;11.00;99.90;;;;;;4894035;29;20040;-88
2022/04/16 09:27:43;;;;;;;4.65;2.28;;;11.00;99.90;;;;;;4885988;29;20037;-89
2022/04/16 09:30:10;;;;;;;5.95;2.22;;;10.90;99.90;;;;;;4894100;29;20487;-90
2022/04/16 09:32:44;;;;;;;4.00;1.80;;;11.00;99.90;;;;;;4889162;29;20136;-90
2022/04/16 09:35:31;;;;;;;5.78;2.20;;;11.20;99.90;;;;;;4888578;29;20028;-89
2022/04/16 09:37:59;;;;;;;4.00;1.52;;;11.10;99.90;;;;;;4887894;29;20031;-89
2022/04/16 09:40:30;;;;;;;4.68;1.90;;;11.10;99.90;;;;;;4896444;29;20380;-90
2022/04/16 09:42:57;;;;;;;6.33;2.40;;;11.20;99.90;;;;;;4895603;29;20543;-90
2022/04/16 09:45:23;;;;;;;5.30;2.08;;;11.00;99.90;;;;;;4893805;29;20084;-90
2022/04/16 09:47:50;;;;;;;3.33;1.60;;;10.90;99.90;;;;;;4903550;29;20044;-89
2022/04/16 09:50:29;;;;;;;4.88;1.88;;;10.90;99.90;;;;;;4909441;29;20153;-89
2022/04/16 09:53:00;;;;;;;6.80;2.05;;;11.10;99.90;;;;;;4894061;29;20033;-89
2022/04/16 09:55:29;;;;;;;2.83;1.35;;;10.90;99.90;;;;;;4894095;29;20105;-90
2022/04/16 09:57:59;;;;;;;4.35;1.88;;;10.90;99.90;;;;;;4892510;29;20392;-89
2022/04/16 10:00:26;;;;;;;4.78;1.90;;;10.90;99.90;;;;;;4895589;29;20036;-88
2022/04/16 10:02:55;;;;;;;6.00;1.85;;;11.10;99.90;;;;;;4887917;29;20032;-90
2022/04/16 10:05:21;;;;;;;4.63;1.92;;;11.10;99.90;;;;;;4891791;29;20029;-88
2022/04/16 10:07:48;;;;;;;3.80;1.58;;;11.30;99.90;;;;;;4886645;29;20069;-89
2022/04/16 10:10:30;;;;;;;4.05;1.80;;;11.40;99.90;;;;;;4893223;29;20143;-89
2022/04/16 10:13:07;;;;;;;4.53;1.80;;;11.60;99.90;;;;;;4889416;29;20483;-89
2022/04/16 10:16:00;;;;;;;5.90;1.92;;;11.70;99.90;;;;;;4894991;29;20028;-89
2022/04/16 10:18:35;;;;;;;;;;;11.90;99.90;;;;;;4894039;29;20115;-89
2022/04/16 10:21:02;;;;;;;4.20;1.50;;;12.20;99.90;;;;;;4895383;29;19911;-89
2022/04/16 10:23:47;;;;;;;3.15;1.45;;;12.20;99.90;;;;;;4897050;29;20034;-89
2022/04/16 10:26:15;;;;;;;3.78;1.80;;;12.40;99.90;;;;;;4911984;29;20077;-89
2022/04/16 10:28:44;;;;;;;4.63;1.85;;;12.50;99.90;;;;;;4897125;29;20041;-89
2022/04/16 10:31:33;;;;;;;3.65;1.50;;;12.50;99.90;;;;;;4891779;29;20053;-88
2022/04/16 10:34:05;;;;;;;4.35;1.63;;;12.60;99.60;;;;;;4893879;29;20057;-89
2022/04/16 10:36:33;;;;;;;4.25;1.50;;;12.50;99.20;;;;;;4891766;29;20123;-91
2022/04/16 10:39:00;;;;;;;4.57;1.60;;;12.10;99.00;;;;;;4909073;29;20092;-90
2022/04/16 10:41:26;;;;;;;2.83;1.40;;;11.90;99.90;;;;;;4895060;29;20116;-90
2022/04/16 10:43:59;;;;;;;5.45;2.00;;;11.90;99.90;;;;;;4895864;29;20031;-90
2022/04/16 10:46:46;;;;;;;4.28;1.73;;;12.00;99.90;;;;;;4895772;29;20064;-90
2022/04/16 10:49:15;;;;;;;4.07;1.58;;;12.10;99.90;;;;;;4897398;29;20028;-91
2022/04/16 10:51:42;;;;;;;3.33;1.50;;;12.20;99.90;;;;;;4897652;29;20025;-89
2022/04/16 10:54:10;;;;;;;4.13;1.70;;;12.30;99.90;;;;;;4893212;29;20480;-90
2022/04/16 10:56:42;;;;;;;4.82;1.92;;;12.40;99.70;;;;;;4897588;29;20029;-89
2022/04/16 10:59:10;;;;;;;5.20;1.75;;;12.40;99.70;;;;;;4898893;29;20033;-90
2022/04/16 11:01:37;;;;;;;4.90;1.35;;;12.40;99.40;;;;;;4897004;29;20115;-88
2022/04/16 11:04:13;;;;;;;3.40;1.45;;;12.30;98.80;;;;;;4899175;29;20061;-90
2022/04/16 11:06:45;;;;;;;3.33;1.27;;;12.30;99.10;;;;;;4896961;29;20562;-90
2022/04/16 11:09:13;;;;;;;5.55;1.60;;;12.40;98.80;;;;;;4895986;29;20064;-89
2022/04/16 11:11:41;;;;;;;3.35;1.40;;;12.80;98.60;;;;;;4884109;29;20132;-89
2022/04/16 11:14:09;;;;;;;3.85;1.60;;;12.70;98.50;;;;;;4880007;29;20025;-89
2022/04/16 11:16:43;;;;;;;4.95;1.42;;;12.80;98.10;;;;;;4879679;29;20608;-90
2022/04/16 11:19:13;;;;;;;4.18;1.48;;;12.80;97.80;;;;;;4894060;29;20115;-89
2022/04/16 11:21:39;;;;;;;2.75;0.98;;;12.90;97.60;;;;;;4896206;29;20037;-90
2022/04/16 11:24:06;;;;;;;2.75;1.20;;;13.00;97.20;;;;;;4896877;29;20088;-89
2022/04/16 11:34:54;;;;;;;3.03;1.20;;;13.20;95.80;;;;;;4897784;29;20063;-90
2022/04/16 11:37:20;;;;;;;3.10;1.27;;;13.00;95.90;;;;;;4895757;29;20029;-90
2022/04/16 11:40:00;;;;;;;2.58;1.27;;;13.00;95.90;;;;;;4893864;29;20060;-90
2022/04/16 11:42:26;;;;;;;3.95;1.30;;;12.80;96.30;;;;;;4896695;29;20033;-90
2022/04/16 11:44:52;;;;;;;4.28;1.40;;;12.70;96.50;;;;;;4897560;29;20035;-89
2022/04/16 11:47:30;;;;;;;3.53;1.30;;;12.70;96.70;;;;;;4900378;29;20043;-90
2022/04/16 11:50:05;;;;;;;4.45;1.63;;;12.60;96.60;;;;;;4897907;29;20091;-90
2022/04/16 11:52:33;;;;;;;3.92;1.48;;;12.60;96.10;;;;;;4896228;29;20029;-90
2022/04/16 12:01:13;;;;;;;3.53;1.58;;;13.50;95.50;;;;;;5236552;23;20067;-93
2022/04/16 12:32:09;;;;;;;3.28;1.17;;;15.40;91.10;;;;;;4895729;29;20075;-88
2022/04/16 12:34:37;;;;;;;4.35;1.70;;;15.90;90.20;;;;;;4899058;29;20080;-89
2022/04/16 12:37:02;;;;;;;3.47;1.48;;;16.30;90.10;;;;;;4915420;29;20024;-89
2022/04/16 12:39:29;;;;;;;3.85;1.27;;;16.90;89.70;;;;;;4916923;29;20034;-88
2022/04/16 12:41:55;;;;;;;3.05;1.20;;;17.40;86.70;;;;;;4917104;29;20028;-89
2022/04/16 13:15:25;;;;;;;3.70;1.70;;;18.30;77.30;;;;;;5229232;23;20045;-87
2022/04/16 13:18:30;;;;;;;2.78;1.27;;;18.60;76.80;;;;;;4877803;29;20017;-88
2022/04/16 13:21:44;;;;;;;;;;;;;;;;;;;;;
2022/04/16 13:24:35;;;;;;;3.55;1.20;;;18.20;74.60;;;;;;4896040;29;20028;-90
2022/04/16 13:31:14;;;;;;;;;;;;;;;;;;;;;
2022/04/16 13:34:36;;;;;;;3.03;1.30;;;16.50;78.40;;;;;;4894268;29;20047;-88
2022/04/16 15:18:36;;;;;;;;;;;;;;;;;;;;;
2022/04/16 15:32:06;;;;;;;1.33;0.70;;;20.40;60.70;;;;;;4885291;29;20162;-88
2022/04/16 15:39:17;;;;;;;;;;;;;;;;;;;;;
2022/04/16 15:42:25;;;;;;;;;;;;;;;;;;;;;
2022/04/16 15:45:47;;;;;;;;;;;;;;;;;;;;;
2022/04/16 15:49:09;;;;;;;2.55;0.95;;;19.20;60.20;;;;;;4887480;29;20037;-89
2022/04/16 15:51:54;;;;;;;2.65;1.02;;;18.80;59.50;;;;;;4906192;29;20028;-89
2022/04/16 15:57:19;;;;;;;;;;;;;;;;;;;;;
2022/04/16 16:00:16;;;;;;;1.77;0.80;;;17.40;62.40;;;;;;4897424;29;20489;-90
2022/04/16 16:03:22;;;;;;;2.35;0.75;;;16.90;63.30;;;;;;4892398;29;20028;-89
2022/04/16 16:05:57;;;;;;;1.52;0.70;;;16.50;64.10;;;;;;4882603;29;20029;-89
2022/04/16 16:08:31;;;;;;;2.63;0.70;;;16.10;64.00;;;;;;4879846;29;20131;-90
2022/04/16 16:11:16;;;;;;;2.38;0.90;;;15.60;62.80;;;;;;4898088;29;20127;-90
2022/04/16 16:13:43;;;;;;;3.03;0.82;;;15.40;63.80;;;;;;4874962;29;20898;-89
2022/04/16 16:16:33;;;;;;;3.30;1.00;;;15.50;63.70;;;;;;4881522;29;20061;-90
2022/04/16 16:19:26;;;;;;;2.13;0.82;;;15.00;63.90;;;;;;4893725;29;20028;-89
2022/04/16 16:22:07;;;;;;;2.45;0.90;;;14.80;63.90;;;;;;4882170;29;20407;-90
2022/04/16 16:25:02;;;;;;;2.20;0.65;;;15.00;63.70;;;;;;4880111;29;20498;-90
2022/04/16 16:27:49;;;;;;;1.20;0.52;;;14.60;64.10;;;;;;4872937;29;20123;-89
2022/04/16 16:30:20;;;;;;;1.92;0.70;;;14.50;64.30;;;;;;4881915;29;20053;-90
2022/04/16 16:33:01;;;;;;;3.40;0.80;;;14.50;63.90;;;;;;4887204;29;20028;-90
2022/04/16 16:35:50;;;;;;;1.48;0.60;;;14.30;64.10;;;;;;4876512;29;20292;-89
2022/04/16 16:38:24;;;;;;;1.35;0.70;;;14.30;64.50;;;;;;4872429;29;20040;-89
2022/04/16 16:41:08;;;;;;;2.55;0.70;;;14.00;64.20;;;;;;4881078;29;20021;-90
2022/04/16 16:43:39;;;;;;;2.00;0.82;;;14.10;64.30;;;;;;4879629;29;20148;-89
2022/04/16 16:46:19;;;;;;;1.80;0.63;;;14.00;64.00;;;;;;4882770;29;20041;-89
2022/04/16 16:48:57;;;;;;;1.73;0.60;;;13.90;62.50;;;;;;4885469;29;20039;-89
2022/04/16 16:51:25;;;;;;;1.35;0.52;;;14.20;62.70;;;;;;4879052;29;20028;-88
2022/04/16 16:54:10;;;;;;;2.40;0.80;;;13.80;62.40;;;;;;4876227;29;20032;-88
2022/04/16 16:56:59;;;;;;;1.73;0.60;;;13.50;62.20;;;;;;4876637;29;20039;-88
2022/04/16 16:59:31;;;;;;;5.05;0.85;;;13.60;61.70;;;;;;4871922;29;20041;-88
2022/04/16 17:05:06;;;;;;;1.95;0.70;;;13.40;62.10;;;;;;4895403;29;20165;-88
2022/04/16 17:08:11;;;;;;;1.73;0.50;;;13.30;61.30;;;;;;4890032;29;20041;-88
2022/04/16 17:10:49;;;;;;;1.60;0.50;;;13.40;61.00;;;;;;4877668;29;20037;-90
2022/04/16 17:13:37;;;;;;;1.20;0.47;;;13.30;60.20;;;;;;4908783;29;20047;-90
2022/04/16 17:19:26;;;;;;;1.23;0.50;;;13.20;58.90;;;;;;4897322;29;20076;-89
2022/04/16 17:22:11;;;;;;;1.50;0.40;;;13.10;58.60;;;;;;4875795;29;20468;-89
2022/04/16 17:25:14;;;;;;;0.63;0.38;;;13.00;57.90;;;;;;4890539;29;20033;-89
2022/04/16 17:27:51;;;;;;;1.00;0.32;;;12.90;58.10;;;;;;4881637;29;20127;-89
2022/04/16 17:30:28;;;;;;;1.58;0.57;;;12.80;58.10;;;;;;4878336;29;20048;-89
2022/04/16 17:33:09;;;;;;;3.42;0.60;;;12.70;57.80;;;;;;4896446;29;20041;-89
2022/04/16 17:46:08;;;;;;;1.65;0.70;;;12.50;59.50;;;;;;4513674;27;20060;-88
2022/04/16 17:48:42;;;;;;;1.83;0.55;;;12.40;59.80;;;;;;4889665;29;20031;-89
2022/04/16 17:51:08;;;;;;;1.52;0.40;;;12.40;60.60;;;;;;4913023;29;20028;-89
2022/04/16 17:53:34;;;;;;;1.67;0.60;;;12.50;60.00;;;;;;4894940;29;20115;-87
2022/04/16 17:56:01;;;;;;;3.15;0.50;;;12.40;60.70;;;;;;4899371;29;20487;-88
2022/04/16 17:58:28;;;;;;;1.63;0.55;;;12.30;62.90;;;;;;4895930;29;20101;-88
2022/04/16 18:00:57;;;;;;;2.00;0.77;;;12.20;59.80;;;;;;4893741;29;20024;-88
2022/04/16 18:03:23;;;;;;;1.35;0.50;;;12.20;60.10;;;;;;4903360;29;20033;-89
2022/04/16 18:05:55;;;;;;;6.80;0.57;;;12.20;60.50;;;;;;4892245;29;20503;-88
2022/04/16 18:11:50;;;;;;;2.40;0.65;;;11.90;60.80;;;;;;4913707;29;19926;-89
2022/04/16 18:14:29;;;;;;;2.95;0.60;;;11.90;60.70;;;;;;4903221;29;20081;-88
2022/04/16 18:16:57;;;;;;;1.15;0.47;;;11.80;60.40;;;;;;4930569;29;20360;-89
2022/04/16 18:19:26;;;;;;;1.83;0.70;;;11.70;60.40;;;;;;4904534;29;20095;-89
2022/04/16 18:21:56;;;;;;;1.42;0.50;;;11.70;61.60;;;;;;4910961;29;20080;-89
2022/04/16 18:24:22;;;;;;;1.45;0.60;;;11.60;62.50;;;;;;4885648;29;20028;-89
2022/04/16 18:26:49;;;;;;;1.85;0.50;;;11.50;62.00;;;;;;4896258;29;20056;-88
2022/04/16 18:29:35;;;;;;;1.45;0.68;;;11.50;62.60;;;;;;4905410;29;20032;-89
2022/04/16 18:32:05;;;;;;;2.35;0.77;;;11.40;62.10;;;;;;4900912;29;20029;-88
2022/04/16 18:34:40;;;;;;;2.55;0.55;;;11.70;63.30;;;;;;4898159;29;20089;-88
2022/04/16 18:37:07;;;;;;;3.58;0.63;;;11.40;62.90;;;;;;4907055;29;20484;-89
2022/04/16 18:39:33;;;;;;;1.40;0.40;;;10.90;63.00;;;;;;4901861;29;20028;-89
2022/04/16 18:42:02;;;;;;;1.48;0.57;;;11.20;64.30;;;;;;4906843;29;20028;-87
2022/04/16 18:44:28;;;;;;;2.22;0.50;;;11.10;64.80;;;;;;4898360;29;20029;-90
2022/04/16 18:46:59;;;;;;;2.83;0.70;;;11.20;64.50;;;;;;4893774;29;20036;-89
2022/04/16 18:50:04;;;;;;;4.00;0.95;;;11.10;64.80;;;;;;4896881;29;20043;-89
2022/04/16 18:52:33;;;;;;;4.47;0.88;;;11.10;65.20;;;;;;4888744;29;20038;-88